createdAt,value
2023-02-08T00:01:28.603Z,9.07
2023-02-08T00:03:00.655Z,8.80
2023-02-08T00:04:32.498Z,9.30
2023-02-08T00:06:05.675Z,9.85
2023-02-08T00:07:37.470Z,10.15
2023-02-08T00:09:09.322Z,9.35
2023-02-08T00:10:41.353Z,8.48
2023-02-08T00:12:13.329Z,8.82
2023-02-08T00:13:45.026Z,8.70
2023-02-08T00:15:16.838Z,8.93
2023-02-08T00:16:48.570Z,8.88
2023-02-08T00:18:21.433Z,8.88
2023-02-08T00:19:53.340Z,8.10
2023-02-08T00:21:24.953Z,9.20
2023-02-08T00:22:56.615Z,8.63
2023-02-08T00:24:28.300Z,7.43
2023-02-08T00:25:59.898Z,7.55
2023-02-08T00:27:31.890Z,8.18
2023-02-08T00:29:03.658Z,6.72
2023-02-08T00:30:37.851Z,7.20
2023-02-08T00:32:10.686Z,7.00
2023-02-08T00:33:42.474Z,7.55
2023-02-08T00:35:14.273Z,8.18
2023-02-08T00:36:45.816Z,7.80
2023-02-08T00:38:17.671Z,8.65
2023-02-08T00:39:50.724Z,7.45
2023-02-08T00:41:22.362Z,8.80
2023-02-08T00:42:54.313Z,10.02
2023-02-08T00:44:25.916Z,8.32
2023-02-08T00:45:59.102Z,8.20
2023-02-08T00:47:30.782Z,8.77
2023-02-08T00:49:02.663Z,9.00
2023-02-08T00:50:34.487Z,9.13
2023-02-08T00:52:07.766Z,9.75
2023-02-08T00:53:41.419Z,8.60
2023-02-08T00:55:13.289Z,9.15
2023-02-08T00:56:44.880Z,9.35
2023-02-08T00:58:16.684Z,9.70
2023-02-08T00:59:48.369Z,8.77
2023-02-08T01:01:20.479Z,8.98
2023-02-08T01:02:52.130Z,9.40
2023-02-08T01:04:23.741Z,9.55
2023-02-08T01:06:01.131Z,8.80
2023-02-08T01:07:32.743Z,9.93
2023-02-08T01:09:06.799Z,8.82
2023-02-08T01:10:38.847Z,9.63
2023-02-08T01:12:11.240Z,9.75
2023-02-08T01:13:45.033Z,8.10
2023-02-08T01:15:16.711Z,10.18
2023-02-08T01:16:48.533Z,8.57
2023-02-08T01:18:20.173Z,9.15
2023-02-08T01:19:51.974Z,9.13
2023-02-08T01:21:26.286Z,9.52
2023-02-08T01:22:57.868Z,9.50
2023-02-08T01:24:35.437Z,8.60
2023-02-08T01:26:08.464Z,8.13
2023-02-08T01:27:40.117Z,11.35
2023-02-08T01:29:11.813Z,9.20
2023-02-08T01:30:44.070Z,10.52
2023-02-08T01:32:15.816Z,9.82
2023-02-08T01:33:47.750Z,8.65
2023-02-08T01:35:19.316Z,8.73
2023-02-08T01:36:50.928Z,8.88
2023-02-08T01:38:22.575Z,9.68
2023-02-08T01:39:54.148Z,8.77
2023-02-08T01:41:29.506Z,10.25
2023-02-08T01:43:01.081Z,9.43
2023-02-08T01:45:10.098Z,8.55
2023-02-08T01:46:43.715Z,8.82
2023-02-08T01:48:31.516Z,10.70
2023-02-08T01:50:03.165Z,8.65
2023-02-08T01:51:43.880Z,9.05
2023-02-08T01:53:16.021Z,8.60
2023-02-08T01:54:58.873Z,7.95
2023-02-08T01:56:34.731Z,9.23
2023-02-08T01:58:11.720Z,8.77
2023-02-08T01:59:48.295Z,8.95
2023-02-08T02:01:20.126Z,9.60
2023-02-08T02:02:54.360Z,10.30
2023-02-08T02:04:26.892Z,9.60
2023-02-08T02:06:06.903Z,8.60
2023-02-08T02:07:41.060Z,7.95
2023-02-08T02:09:31.169Z,8.15
2023-02-08T02:11:04.869Z,8.88
2023-02-08T02:12:38.964Z,8.50
2023-02-08T02:14:12.030Z,8.15
2023-02-08T02:15:44.961Z,8.50
2023-02-08T02:17:19.804Z,8.95
2023-02-08T02:18:51.476Z,10.75
2023-02-08T02:21:00.243Z,9.30
2023-02-08T02:22:31.924Z,8.65
2023-02-08T02:24:42.234Z,9.77
2023-02-08T02:26:41.029Z,8.00
2023-02-08T02:28:34.028Z,9.02
2023-02-08T02:30:24.223Z,7.40
2023-02-08T02:32:07.252Z,8.63
2023-02-08T02:33:53.716Z,9.38
2023-02-08T02:35:32.376Z,8.38
2023-02-08T02:37:09.934Z,9.70
2023-02-08T02:38:55.315Z,11.13
2023-02-08T02:40:45.401Z,8.75
2023-02-08T02:42:49.428Z,10.60
2023-02-08T02:44:46.372Z,8.93
2023-02-08T02:46:40.685Z,9.40
2023-02-08T02:48:18.422Z,8.80
2023-02-08T02:50:01.665Z,8.48
2023-02-08T02:51:36.162Z,10.05
2023-02-08T02:53:17.932Z,8.45
2023-02-08T02:54:55.646Z,7.60
2023-02-08T02:56:32.069Z,8.52
2023-02-08T02:58:05.946Z,8.88
2023-02-08T02:59:39.117Z,9.25
2023-02-08T03:01:10.954Z,8.07
2023-02-08T03:02:43.254Z,8.88
2023-02-08T03:04:33.146Z,9.32
2023-02-08T03:06:10.286Z,9.82
2023-02-08T03:07:57.856Z,9.23
2023-02-08T03:09:44.573Z,10.25
2023-02-08T03:11:22.797Z,8.38
2023-02-08T03:13:16.161Z,8.63
2023-02-08T03:15:11.725Z,9.13
2023-02-08T03:17:01.534Z,7.75
2023-02-08T03:18:55.630Z,7.13
2023-02-08T03:20:36.246Z,6.07
2023-02-08T03:22:31.849Z,7.75
2023-02-08T03:24:28.778Z,7.75
2023-02-08T03:26:23.493Z,6.80
2023-02-08T03:28:36.443Z,7.53
2023-02-08T03:30:17.259Z,8.07
2023-02-08T03:31:55.475Z,7.60
2023-02-08T03:33:52.356Z,8.60
2023-02-08T03:35:38.664Z,7.80
2023-02-08T03:37:20.629Z,7.32
2023-02-08T03:38:54.753Z,6.97
2023-02-08T03:40:36.223Z,8.93
2023-02-08T03:42:17.214Z,9.30
2023-02-08T03:43:57.808Z,9.80
2023-02-08T03:45:38.803Z,8.43
2023-02-08T03:47:18.307Z,7.68
2023-02-08T03:49:00.811Z,7.55
2023-02-08T03:50:36.253Z,8.77
2023-02-08T03:52:10.405Z,10.23
2023-02-08T03:53:44.943Z,8.55
2023-02-08T03:55:20.733Z,8.00
2023-02-08T03:56:55.301Z,7.75
2023-02-08T03:58:34.472Z,7.03
2023-02-08T04:00:09.979Z,8.07
2023-02-08T04:01:56.058Z,8.48
2023-02-08T04:03:30.917Z,8.30
2023-02-08T04:05:03.026Z,9.30
2023-02-08T04:06:34.842Z,6.93
2023-02-08T04:08:06.570Z,9.15
2023-02-08T04:09:38.905Z,8.77
2023-02-08T04:11:10.525Z,8.15
2023-02-08T04:12:43.211Z,9.25
2023-02-08T04:14:15.029Z,9.18
2023-02-08T04:15:47.050Z,9.10
2023-02-08T04:17:18.671Z,8.52
2023-02-08T04:18:50.257Z,10.57
2023-02-08T04:20:21.985Z,9.93
2023-02-08T04:21:53.572Z,7.90
2023-02-08T04:23:25.183Z,9.15
2023-02-08T04:24:56.690Z,9.07
2023-02-08T04:26:28.460Z,11.48
2023-02-08T04:28:00.135Z,9.63
2023-02-08T04:29:31.723Z,8.23
2023-02-08T04:31:03.451Z,9.07
2023-02-08T04:32:35.078Z,9.63
2023-02-08T04:34:06.812Z,9.40
2023-02-08T04:35:38.605Z,8.18
2023-02-08T04:37:11.192Z,9.35
2023-02-08T04:38:42.755Z,8.05
2023-02-08T04:40:14.314Z,9.30
2023-02-08T04:41:45.885Z,9.20
2023-02-08T04:43:17.489Z,8.57
2023-02-08T04:44:49.023Z,8.82
2023-02-08T04:46:20.651Z,8.75
2023-02-08T04:47:52.437Z,8.98
2023-02-08T04:49:24.075Z,8.80
2023-02-08T04:50:57.413Z,9.88
2023-02-08T04:52:29.506Z,8.52
2023-02-08T04:54:01.113Z,8.60
2023-02-08T04:55:32.693Z,7.78
2023-02-08T04:57:04.422Z,9.95
2023-02-08T04:58:36.693Z,7.88
2023-02-08T05:00:08.683Z,7.55
2023-02-08T05:01:40.378Z,7.75
2023-02-08T05:03:12.456Z,8.13
2023-02-08T05:04:44.094Z,10.10
2023-02-08T05:06:15.664Z,9.73
2023-02-08T05:07:47.266Z,9.13
2023-02-08T05:09:18.841Z,9.02
2023-02-08T05:10:50.394Z,8.25
2023-02-08T05:12:22.115Z,8.18
2023-02-08T05:13:53.688Z,9.02
2023-02-08T05:15:25.348Z,10.13
2023-02-08T05:16:56.923Z,9.30
2023-02-08T05:18:28.675Z,9.18
2023-02-08T05:20:00.760Z,10.02
2023-02-08T05:21:32.418Z,8.02
2023-02-08T05:23:03.989Z,7.93
2023-02-08T05:24:35.546Z,7.53
2023-02-08T05:26:09.460Z,8.77
2023-02-08T05:27:41.017Z,7.20
2023-02-08T05:29:12.606Z,8.05
2023-02-08T05:30:44.881Z,6.95
2023-02-08T05:32:16.953Z,8.20
2023-02-08T05:33:50.204Z,8.65
2023-02-08T05:35:21.812Z,8.75
2023-02-08T05:36:53.614Z,8.13
2023-02-08T05:38:25.212Z,8.23
2023-02-08T05:39:56.847Z,8.63
2023-02-08T05:41:28.497Z,8.05
2023-02-08T05:43:00.294Z,9.23
2023-02-08T05:44:32.612Z,7.80
2023-02-08T05:46:04.399Z,8.88
2023-02-08T05:47:37.095Z,7.63
2023-02-08T05:49:08.722Z,7.78
2023-02-08T05:50:40.498Z,8.35
2023-02-08T05:52:14.529Z,9.55
2023-02-08T05:53:46.110Z,7.15
2023-02-08T05:55:17.679Z,9.35
2023-02-08T05:56:49.335Z,9.77
2023-02-08T05:58:20.883Z,9.90
2023-02-08T05:59:52.483Z,8.52
2023-02-08T06:01:24.024Z,10.57
2023-02-08T06:02:57.523Z,14.90
2023-02-08T06:04:29.281Z,13.00
2023-02-08T06:06:01.669Z,9.02
2023-02-08T06:07:33.212Z,8.32
2023-02-08T06:09:05.009Z,7.60
2023-02-08T06:10:37.022Z,9.25
2023-02-08T06:12:08.795Z,9.07
2023-02-08T06:13:40.355Z,9.50
2023-02-08T06:15:11.992Z,5.85
2023-02-08T06:16:43.598Z,7.95
2023-02-08T06:18:15.455Z,8.23
2023-02-08T06:19:47.069Z,8.45
2023-02-08T06:21:18.777Z,7.93
2023-02-08T06:22:50.609Z,8.30
2023-02-08T06:24:22.275Z,7.28
2023-02-08T06:25:53.836Z,7.70
2023-02-08T06:27:25.768Z,7.55
2023-02-08T06:28:59.164Z,8.35
2023-02-08T06:30:31.162Z,8.65
2023-02-08T06:32:03.176Z,9.73
2023-02-08T06:33:35.476Z,8.82
2023-02-08T06:35:07.760Z,9.98
2023-02-08T06:36:39.376Z,9.52
2023-02-08T06:38:11.000Z,10.63
2023-02-08T06:39:42.704Z,8.95
2023-02-08T06:41:14.370Z,9.68
2023-02-08T06:42:48.019Z,9.15
2023-02-08T06:44:19.665Z,9.68
2023-02-08T06:45:51.346Z,12.25
2023-02-08T06:47:29.576Z,10.82
2023-02-08T06:49:01.174Z,10.95
2023-02-08T06:50:33.146Z,11.40
2023-02-08T06:52:04.922Z,10.50
2023-02-08T06:53:36.590Z,11.00
2023-02-08T06:55:08.384Z,9.57
2023-02-08T06:56:39.959Z,9.43
2023-02-08T06:58:11.593Z,9.15
2023-02-08T06:59:43.287Z,10.82
2023-02-08T07:01:15.116Z,12.90
2023-02-08T07:02:47.418Z,11.43
2023-02-08T07:04:19.109Z,10.55
2023-02-08T07:06:04.061Z,14.43
2023-02-08T07:07:36.789Z,24.65
2023-02-08T07:09:08.427Z,17.27
2023-02-08T07:10:40.756Z,16.33
2023-02-08T07:12:12.800Z,12.35
2023-02-08T07:13:48.994Z,10.88
2023-02-08T07:15:20.664Z,11.85
2023-02-08T07:16:54.581Z,10.40
2023-02-08T07:18:27.582Z,8.95
2023-02-08T07:19:59.183Z,8.38
2023-02-08T07:21:30.854Z,9.68
2023-02-08T07:23:02.423Z,8.70
2023-02-08T07:24:38.972Z,9.57
2023-02-08T07:26:12.255Z,8.95
2023-02-08T07:27:43.976Z,10.60
2023-02-08T07:29:15.502Z,8.70
2023-02-08T07:30:47.171Z,8.57
2023-02-08T07:32:18.834Z,9.50
2023-02-08T07:33:50.500Z,9.88
2023-02-08T07:35:22.225Z,11.35
2023-02-08T07:36:54.058Z,11.05
2023-02-08T07:38:25.784Z,10.05
2023-02-08T07:39:57.390Z,9.77
2023-02-08T07:41:29.292Z,10.40
2023-02-08T07:43:01.201Z,9.98
2023-02-08T07:44:43.385Z,11.27
2023-02-08T07:46:18.238Z,9.23
2023-02-08T07:47:50.132Z,9.52
2023-02-08T07:49:22.255Z,10.68
2023-02-08T07:50:53.993Z,9.63
2023-02-08T07:52:25.665Z,10.05
2023-02-08T07:53:57.650Z,9.93
2023-02-08T07:55:29.499Z,8.90
2023-02-08T07:57:03.538Z,9.30
2023-02-08T07:58:35.535Z,12.27
2023-02-08T08:00:07.774Z,12.52
2023-02-08T08:01:44.028Z,12.65
2023-02-08T08:03:16.184Z,9.65
2023-02-08T08:04:48.516Z,10.85
2023-02-08T08:06:22.295Z,10.23
2023-02-08T08:07:54.596Z,12.60
2023-02-08T08:09:27.638Z,10.82
2023-02-08T08:11:01.243Z,10.15
2023-02-08T08:12:34.616Z,10.38
2023-02-08T08:14:06.951Z,11.52
2023-02-08T08:15:40.352Z,12.25
2023-02-08T08:17:12.682Z,10.10
2023-02-08T08:18:44.903Z,11.35
2023-02-08T08:20:17.241Z,10.65
2023-02-08T08:21:49.873Z,10.65
2023-02-08T08:23:21.667Z,9.50
2023-02-08T08:24:53.893Z,8.20
2023-02-08T08:26:25.938Z,8.88
2023-02-08T08:27:58.642Z,8.73
2023-02-08T08:29:35.489Z,9.07
2023-02-08T08:31:12.948Z,7.90
2023-02-08T08:32:44.944Z,8.30
2023-02-08T08:34:16.988Z,8.18
2023-02-08T08:35:49.105Z,9.77
2023-02-08T08:37:21.116Z,7.93
2023-02-08T08:38:53.582Z,8.90
2023-02-08T08:40:25.849Z,9.30
2023-02-08T08:41:59.835Z,9.90
2023-02-08T08:43:32.091Z,9.35
2023-02-08T08:45:04.934Z,8.48
2023-02-08T08:46:37.221Z,10.18
2023-02-08T08:48:09.735Z,9.10
2023-02-08T08:49:42.766Z,8.48
2023-02-08T08:51:15.226Z,8.48
2023-02-08T08:52:47.205Z,9.15
2023-02-08T08:54:20.095Z,9.25
2023-02-08T08:55:52.005Z,9.07
2023-02-08T08:57:24.146Z,10.15
2023-02-08T08:58:56.092Z,8.77
2023-02-08T09:00:28.178Z,8.90
2023-02-08T09:02:00.765Z,9.52
2023-02-08T09:03:32.869Z,9.93
2023-02-08T09:05:08.086Z,9.60
2023-02-08T09:06:40.380Z,9.50
2023-02-08T09:08:14.151Z,8.98
2023-02-08T09:09:48.276Z,11.40
2023-02-08T09:11:21.040Z,9.88
2023-02-08T09:12:53.327Z,11.07
2023-02-08T09:14:25.778Z,10.93
2023-02-08T09:15:57.946Z,9.40
2023-02-08T09:17:30.014Z,11.05
2023-02-08T09:19:03.015Z,11.23
2023-02-08T09:20:38.613Z,9.55
2023-02-08T09:22:10.562Z,10.00
2023-02-08T09:23:43.828Z,10.48
2023-02-08T09:25:16.323Z,14.52
2023-02-08T09:26:48.380Z,11.02
2023-02-08T09:28:20.292Z,13.63
2023-02-08T09:29:52.253Z,13.73
2023-02-08T09:31:27.216Z,13.23
2023-02-08T09:32:59.332Z,11.75
2023-02-08T09:34:31.905Z,11.15
2023-02-08T09:36:04.628Z,10.43
2023-02-08T09:37:36.767Z,12.75
2023-02-08T09:39:22.288Z,11.07
2023-02-08T09:41:12.666Z,10.60
2023-02-08T09:42:55.171Z,9.35
2023-02-08T09:44:55.512Z,9.65
2023-02-08T09:46:31.282Z,9.02
2023-02-08T09:48:21.842Z,9.75
2023-02-08T09:50:13.616Z,8.95
2023-02-08T09:51:51.757Z,9.23
2023-02-08T09:53:28.581Z,8.93
2023-02-08T09:55:11.080Z,9.68
2023-02-08T09:56:45.282Z,9.18
2023-02-08T09:58:29.175Z,9.38
2023-02-08T10:00:08.596Z,9.93
2023-02-08T10:01:40.772Z,9.07
2023-02-08T10:03:36.735Z,9.50
2023-02-08T10:05:12.222Z,7.88
2023-02-08T10:06:45.272Z,9.82
2023-02-08T10:08:17.466Z,7.88
2023-02-08T10:09:49.424Z,7.95
2023-02-08T10:11:39.845Z,9.13
2023-02-08T10:13:41.588Z,7.40
2023-02-08T10:15:41.872Z,7.18
2023-02-08T10:17:32.070Z,7.65
2023-02-08T10:19:29.115Z,7.28
2023-02-08T10:21:24.048Z,7.47
2023-02-08T10:23:29.434Z,7.47
2023-02-08T10:25:19.907Z,7.63
2023-02-08T10:26:57.644Z,8.15
2023-02-08T10:28:52.702Z,6.80
2023-02-08T10:30:46.706Z,7.15
2023-02-08T10:32:56.234Z,7.35
2023-02-08T10:34:40.165Z,6.88
2023-02-08T10:36:20.950Z,7.57
2023-02-08T10:37:54.280Z,7.20
2023-02-08T10:39:31.045Z,6.78
2023-02-08T10:41:06.229Z,5.90
2023-02-08T10:42:39.625Z,6.53
2023-02-08T10:44:49.469Z,8.13
2023-02-08T10:46:43.120Z,8.13
2023-02-08T10:48:28.077Z,6.80
2023-02-08T10:50:19.194Z,6.22
2023-02-08T10:51:51.621Z,7.07
2023-02-08T10:53:23.734Z,6.45
2023-02-08T10:54:59.231Z,5.50
2023-02-08T10:56:31.556Z,7.22
2023-02-08T10:58:06.285Z,7.20
2023-02-08T10:59:49.419Z,7.40
2023-02-08T11:01:21.824Z,7.68
2023-02-08T11:02:57.159Z,6.10
2023-02-08T11:04:29.403Z,8.05
2023-02-08T11:06:01.326Z,7.93
2023-02-08T11:07:36.081Z,7.60
2023-02-08T11:09:21.647Z,7.63
2023-02-08T11:10:59.866Z,7.97
2023-02-08T11:12:31.522Z,6.72
2023-02-08T11:14:18.328Z,6.35
2023-02-08T11:15:53.994Z,5.25
2023-02-08T11:17:31.760Z,5.32
2023-02-08T11:19:07.836Z,5.70
2023-02-08T11:20:40.482Z,5.50
2023-02-08T11:22:18.132Z,6.85
2023-02-08T11:23:53.744Z,5.97
2023-02-08T11:25:37.847Z,6.28
2023-02-08T11:27:28.487Z,6.95
2023-02-08T11:29:07.597Z,6.80
2023-02-08T11:30:39.436Z,5.35
2023-02-08T11:32:20.672Z,5.95
2023-02-08T11:34:01.629Z,6.07
2023-02-08T11:35:34.057Z,6.00
2023-02-08T11:37:26.557Z,5.35
2023-02-08T11:39:02.048Z,4.88
2023-02-08T11:40:37.589Z,6.47
2023-02-08T11:42:20.449Z,4.68
2023-02-08T11:43:54.854Z,5.57
2023-02-08T11:45:33.006Z,4.90
2023-02-08T11:47:07.702Z,5.38
2023-02-08T11:48:45.167Z,5.13
2023-02-08T11:50:43.264Z,5.90
2023-02-08T11:52:27.536Z,5.38
2023-02-08T11:54:00.975Z,6.32
2023-02-08T11:55:34.654Z,4.90
2023-02-08T11:57:12.417Z,6.15
2023-02-08T11:58:59.422Z,6.35
2023-02-08T12:00:35.398Z,5.60
2023-02-08T12:02:28.686Z,5.18
2023-02-08T12:04:02.860Z,5.25
2023-02-08T12:05:57.909Z,5.28
2023-02-08T12:07:43.295Z,5.70
2023-02-08T12:09:23.302Z,5.10
2023-02-08T12:11:01.167Z,4.93
2023-02-08T12:12:39.726Z,6.68
2023-02-08T12:14:11.596Z,5.47
2023-02-08T12:15:58.261Z,5.07
2023-02-08T12:17:51.864Z,5.05
2023-02-08T12:19:42.125Z,5.28
2023-02-08T12:21:44.348Z,4.93
2023-02-08T12:23:24.943Z,5.07
2023-02-08T12:25:02.770Z,4.13
2023-02-08T12:27:31.114Z,4.45
2023-02-08T12:29:45.630Z,4.35
2023-02-08T12:31:32.560Z,4.72
2023-02-08T12:33:30.156Z,4.20
2023-02-08T12:35:50.947Z,3.90
2023-02-08T12:37:59.719Z,3.75
2023-02-08T12:40:10.482Z,4.70
2023-02-08T12:41:59.477Z,5.30
2023-02-08T12:43:53.510Z,4.80
2023-02-08T12:46:15.693Z,3.97
2023-02-08T12:48:19.344Z,5.18
2023-02-08T12:50:07.154Z,5.60
2023-02-08T12:51:53.857Z,5.25
2023-02-08T12:53:37.800Z,4.22
2023-02-08T12:55:16.026Z,4.68
2023-02-08T12:57:01.473Z,4.68
2023-02-08T12:59:35.598Z,4.25
2023-02-08T13:01:12.958Z,4.50
2023-02-08T13:02:57.498Z,4.63
2023-02-08T13:04:46.376Z,4.50
2023-02-08T13:06:30.412Z,4.97
2023-02-08T13:08:13.259Z,3.83
2023-02-08T13:10:03.952Z,4.45
2023-02-08T13:11:50.099Z,5.80
2023-02-08T13:13:30.280Z,5.03
2023-02-08T13:15:24.818Z,5.10
2023-02-08T13:17:43.876Z,4.70
2023-02-08T13:19:29.675Z,4.40
2023-02-08T13:21:19.876Z,6.03
2023-02-08T13:22:55.071Z,3.42
2023-02-08T13:24:42.391Z,4.78
2023-02-08T13:26:31.652Z,5.07
2023-02-08T13:28:06.329Z,4.60
2023-02-08T13:29:38.565Z,5.07
2023-02-08T13:31:39.913Z,6.10
2023-02-08T13:33:19.357Z,4.25
2023-02-08T13:34:55.585Z,4.50
2023-02-08T13:36:33.892Z,4.93
2023-02-08T13:38:33.664Z,4.35
2023-02-08T13:40:28.324Z,3.95
2023-02-08T13:42:02.870Z,4.88
2023-02-08T13:43:42.675Z,4.65
2023-02-08T13:45:34.580Z,5.68
2023-02-08T13:47:07.579Z,4.97
2023-02-08T13:48:52.177Z,4.25
2023-02-08T13:50:46.002Z,5.15
2023-02-08T13:52:46.371Z,4.97
2023-02-08T13:54:19.282Z,5.00
2023-02-08T13:56:01.842Z,5.53
2023-02-08T13:57:54.885Z,5.63
2023-02-08T13:59:35.703Z,4.70
2023-02-08T14:01:30.669Z,5.18
2023-02-08T14:03:08.366Z,5.13
2023-02-08T14:04:45.553Z,4.93
2023-02-08T14:06:19.676Z,5.03
2023-02-08T14:07:55.764Z,5.38
2023-02-08T14:11:13.617Z,5.30
2023-02-08T14:12:58.213Z,5.18
2023-02-08T14:14:35.114Z,4.93
2023-02-08T14:16:31.620Z,5.55
2023-02-08T14:18:05.610Z,5.60
2023-02-08T14:19:39.891Z,4.65
2023-02-08T14:21:43.554Z,6.38
2023-02-08T14:23:25.094Z,5.72
2023-02-08T14:25:05.110Z,8.13
2023-02-08T14:26:37.356Z,5.70
2023-02-08T14:28:23.428Z,6.53
2023-02-08T14:30:16.856Z,6.30
2023-02-08T14:31:50.325Z,5.82
2023-02-08T14:33:26.991Z,6.00
2023-02-08T14:35:06.747Z,6.32
2023-02-08T14:36:39.123Z,6.70
2023-02-08T14:38:19.838Z,5.88
2023-02-08T14:40:17.137Z,7.07
2023-02-08T14:41:54.676Z,6.13
2023-02-08T14:43:38.589Z,5.95
2023-02-08T14:45:28.262Z,5.88
2023-02-08T14:46:59.999Z,5.72
2023-02-08T14:48:35.466Z,5.40
2023-02-08T14:50:19.108Z,6.07
2023-02-08T14:51:59.650Z,6.00
2023-02-08T14:53:43.747Z,6.80
2023-02-08T14:55:21.635Z,5.22
2023-02-08T14:57:06.698Z,5.97
2023-02-08T14:58:42.581Z,5.60
2023-02-08T15:00:22.243Z,5.15
2023-02-08T15:02:00.811Z,5.60
2023-02-08T15:03:35.114Z,4.90
2023-02-08T15:05:10.320Z,5.05
2023-02-08T15:06:58.815Z,6.35
2023-02-08T15:08:31.363Z,5.47
2023-02-08T15:10:05.924Z,6.18
2023-02-08T15:11:37.802Z,6.50
2023-02-08T15:13:19.884Z,6.10
2023-02-08T15:14:55.468Z,6.07
2023-02-08T15:16:35.715Z,6.32
2023-02-08T15:18:18.997Z,7.75
2023-02-08T15:19:51.885Z,6.88
2023-02-08T15:21:31.828Z,6.15
2023-02-08T15:23:23.947Z,5.40
2023-02-08T15:25:00.857Z,6.22
2023-02-08T15:26:32.542Z,5.57
2023-02-08T15:28:21.278Z,7.03
2023-02-08T15:31:32.220Z,6.10
2023-02-08T15:33:10.389Z,6.07
2023-02-08T15:34:50.402Z,7.28
2023-02-08T15:36:28.051Z,5.80
2023-02-08T15:37:59.977Z,6.50
2023-02-08T15:39:38.616Z,6.82
2023-02-08T15:41:16.421Z,7.70
2023-02-08T15:42:48.153Z,7.57
2023-02-08T15:44:25.933Z,7.30
2023-02-08T15:46:04.042Z,7.03
2023-02-08T15:47:38.029Z,6.82
2023-02-08T15:49:15.406Z,7.10
2023-02-08T15:50:47.389Z,6.18
2023-02-08T15:52:32.730Z,7.00
2023-02-08T15:54:05.013Z,7.10
2023-02-08T15:55:45.548Z,7.45
2023-02-08T15:57:36.058Z,8.07
2023-02-08T15:59:18.659Z,6.72
2023-02-08T16:00:50.999Z,7.55
2023-02-08T16:02:33.481Z,7.50
2023-02-08T16:04:07.952Z,6.95
2023-02-08T16:05:39.998Z,7.22
2023-02-08T16:07:24.565Z,8.38
2023-02-08T16:09:00.896Z,7.90
2023-02-08T16:10:40.627Z,7.25
2023-02-08T16:12:22.489Z,7.57
2023-02-08T16:13:57.601Z,7.63
2023-02-08T16:15:35.414Z,8.48
2023-02-08T16:17:46.217Z,8.40
2023-02-08T16:19:33.292Z,7.45
2023-02-08T16:21:29.244Z,9.38
2023-02-08T16:23:25.496Z,8.00
2023-02-08T16:25:23.651Z,8.20
2023-02-08T16:27:01.568Z,10.38
2023-02-08T16:28:33.888Z,8.20
2023-02-08T16:30:06.211Z,9.63
2023-02-08T16:31:39.165Z,9.45
2023-02-08T16:33:13.346Z,9.93
2023-02-08T16:34:45.251Z,9.70
2023-02-08T16:36:25.647Z,8.52
2023-02-08T16:38:01.316Z,10.07
2023-02-08T16:39:50.543Z,9.43
2023-02-08T16:42:15.491Z,9.75
2023-02-08T16:43:49.301Z,9.15
2023-02-08T16:45:22.646Z,9.63
2023-02-08T16:46:54.713Z,10.07
2023-02-08T16:48:36.104Z,11.20
2023-02-08T16:50:11.393Z,10.98
2023-02-08T16:51:45.828Z,9.23
2023-02-08T16:53:17.620Z,10.77
2023-02-08T16:54:49.492Z,9.98
2023-02-08T16:56:21.697Z,8.82
2023-02-08T16:57:55.784Z,9.82
2023-02-08T16:59:28.341Z,10.63
2023-02-08T17:01:00.237Z,11.40
2023-02-08T17:02:31.952Z,9.90
2023-02-08T17:04:04.068Z,10.27
2023-02-08T17:05:38.498Z,11.15
2023-02-08T17:07:20.714Z,10.50
2023-02-08T17:08:52.516Z,10.93
2023-02-08T17:10:30.876Z,10.85
2023-02-08T17:12:10.780Z,9.95
2023-02-08T17:13:52.470Z,11.63
2023-02-08T17:15:24.856Z,10.85
2023-02-08T17:16:56.938Z,11.38
2023-02-08T17:18:28.976Z,12.52
2023-02-08T17:20:00.728Z,13.85
2023-02-08T17:21:32.843Z,13.23
2023-02-08T17:23:06.605Z,12.85
2023-02-08T17:24:39.271Z,13.57
2023-02-08T17:26:23.163Z,11.98
2023-02-08T17:28:11.611Z,11.90
2023-02-08T17:29:43.452Z,11.57
2023-02-08T17:31:15.143Z,12.77
2023-02-08T17:32:50.755Z,13.18
2023-02-08T17:34:22.515Z,12.52
2023-02-08T17:35:54.263Z,12.10
2023-02-08T17:37:25.980Z,12.50
2023-02-08T17:38:58.616Z,13.02
2023-02-08T17:40:36.423Z,13.43
2023-02-08T17:42:08.192Z,12.45
2023-02-08T17:43:40.089Z,13.48
2023-02-08T17:45:11.921Z,13.45
2023-02-08T17:46:43.770Z,12.45
2023-02-08T17:48:19.000Z,13.10
2023-02-08T17:49:50.775Z,13.18
2023-02-08T17:51:24.087Z,12.27
2023-02-08T17:52:55.849Z,13.85
2023-02-08T17:54:27.528Z,13.30
2023-02-08T17:55:59.238Z,12.85
2023-02-08T17:57:32.800Z,15.05
2023-02-08T17:59:05.596Z,13.52
2023-02-08T18:00:37.797Z,15.55
2023-02-08T18:02:09.618Z,15.70
2023-02-08T18:03:41.608Z,14.32
2023-02-08T18:05:18.448Z,14.88
2023-02-08T18:06:50.266Z,13.60
2023-02-08T18:08:22.011Z,13.30
2023-02-08T18:09:54.238Z,13.60
2023-02-08T18:11:26.037Z,14.13
2023-02-08T18:12:57.871Z,13.88
2023-02-08T18:14:29.690Z,13.25
2023-02-08T18:16:13.778Z,15.38
2023-02-08T18:17:46.626Z,13.93
2023-02-08T18:19:19.576Z,16.40
2023-02-08T18:20:51.426Z,16.35
2023-02-08T18:22:25.066Z,15.98
2023-02-08T18:24:02.145Z,15.35
2023-02-08T18:25:34.115Z,14.63
2023-02-08T18:27:05.900Z,14.85
2023-02-08T18:28:40.295Z,14.05
2023-02-08T18:30:12.654Z,15.27
2023-02-08T18:31:44.622Z,15.27
2023-02-08T18:33:16.390Z,14.73
2023-02-08T18:34:49.218Z,13.98
2023-02-08T18:36:23.761Z,13.60
2023-02-08T18:37:56.463Z,13.32
2023-02-08T18:39:29.155Z,12.23
2023-02-08T18:41:02.079Z,13.57
2023-02-08T18:42:36.210Z,12.55
2023-02-08T18:44:09.623Z,13.40
2023-02-08T18:45:42.061Z,12.85
2023-02-08T18:47:14.097Z,14.80
2023-02-08T18:48:46.950Z,13.90
2023-02-08T18:50:18.760Z,13.25
2023-02-08T18:51:50.472Z,12.55
2023-02-08T18:53:23.939Z,14.07
2023-02-08T18:54:55.648Z,14.05
2023-02-08T18:56:28.098Z,12.93
2023-02-08T18:57:59.993Z,14.35
2023-02-08T18:59:33.415Z,12.73
2023-02-08T19:01:08.322Z,14.82
2023-02-08T19:02:40.030Z,36.80
2023-02-08T19:04:11.853Z,21.55
2023-02-08T19:05:44.121Z,13.93
2023-02-08T19:07:16.353Z,13.80
2023-02-08T19:08:51.645Z,13.35
2023-02-08T19:10:23.548Z,12.55
2023-02-08T19:11:56.001Z,13.18
2023-02-08T19:13:27.940Z,12.32
2023-02-08T19:14:59.700Z,12.90
2023-02-08T19:16:32.720Z,13.50
2023-02-08T19:18:06.430Z,15.27
2023-02-08T19:19:38.370Z,14.32
2023-02-08T19:21:14.300Z,14.20
2023-02-08T19:22:46.037Z,14.57
2023-02-08T19:24:19.827Z,14.15
2023-02-08T19:25:51.662Z,13.63
2023-02-08T19:27:23.744Z,14.57
2023-02-08T19:28:59.059Z,15.60
2023-02-08T19:30:30.960Z,13.60
2023-02-08T19:32:02.966Z,13.20
2023-02-08T19:33:34.884Z,13.43
2023-02-08T19:35:07.042Z,12.75
2023-02-08T19:36:49.639Z,13.52
2023-02-08T19:39:53.376Z,12.45
2023-02-08T19:41:34.177Z,13.07
2023-02-08T19:43:08.534Z,12.20
2023-02-08T19:44:40.630Z,11.23
2023-02-08T19:46:14.525Z,12.60
2023-02-08T19:47:51.327Z,13.15
2023-02-08T19:49:25.773Z,13.18
2023-02-08T19:50:59.917Z,15.13
2023-02-08T19:52:31.982Z,13.73
2023-02-08T19:54:07.386Z,12.60
2023-02-08T19:55:39.307Z,14.32
2023-02-08T19:57:12.603Z,13.13
2023-02-08T19:58:45.441Z,12.43
2023-02-08T20:00:23.906Z,12.48
2023-02-08T20:01:56.253Z,14.00
2023-02-08T20:03:28.478Z,12.13
2023-02-08T20:05:00.322Z,12.00
2023-02-08T20:06:35.969Z,11.73
2023-02-08T20:08:07.883Z,12.60
2023-02-08T20:09:39.915Z,12.73
2023-02-08T20:11:20.441Z,11.80
2023-02-08T20:12:52.328Z,13.68
2023-02-08T20:14:26.098Z,13.13
2023-02-08T20:16:01.664Z,13.55
2023-02-08T20:17:33.359Z,12.23
2023-02-08T20:19:05.704Z,11.98
2023-02-08T20:20:38.049Z,11.77
2023-02-08T20:22:10.019Z,12.18
2023-02-08T20:23:42.228Z,13.52
2023-02-08T20:25:14.098Z,12.80
2023-02-08T20:26:48.084Z,12.35
2023-02-08T20:28:19.948Z,12.38
2023-02-08T20:29:56.210Z,13.45
2023-02-08T20:33:01.063Z,11.48
2023-02-08T20:34:32.941Z,13.35
2023-02-08T20:36:16.086Z,12.52
2023-02-08T20:37:48.681Z,12.20
2023-02-08T20:39:20.973Z,14.30
2023-02-08T20:41:01.820Z,13.68
2023-02-08T20:42:33.932Z,12.05
2023-02-08T20:44:05.730Z,13.48
2023-02-08T20:45:41.184Z,12.82
2023-02-08T20:47:14.015Z,12.75
2023-02-08T20:48:46.406Z,13.95
2023-02-08T20:50:20.375Z,13.90
2023-02-08T20:51:53.659Z,12.68
2023-02-08T20:53:25.537Z,14.63
2023-02-08T20:54:57.615Z,12.10
2023-02-08T20:56:34.682Z,14.05
2023-02-08T20:58:06.594Z,13.57
2023-02-08T20:59:38.438Z,15.07
2023-02-08T21:01:25.453Z,13.15
2023-02-08T21:02:57.318Z,13.60
2023-02-08T21:04:29.965Z,11.35
2023-02-08T21:06:01.974Z,12.52
2023-02-08T21:07:33.882Z,13.23
2023-02-08T21:09:09.595Z,13.30
2023-02-08T21:10:41.715Z,11.27
2023-02-08T21:12:13.674Z,14.43
2023-02-08T21:13:46.225Z,12.73
2023-02-08T21:15:18.290Z,13.98
2023-02-08T21:16:52.982Z,12.40
2023-02-08T21:18:24.827Z,13.48
2023-02-08T21:19:56.730Z,12.88
2023-02-08T21:21:28.710Z,11.05
2023-02-08T21:23:00.572Z,11.05
2023-02-08T21:24:32.769Z,11.50
2023-02-08T21:26:06.856Z,11.40